sensor_id;sensor_type;location;lat;lon;timestamp;temperature;humidity
37289;DHT22;23174;49.462;11.000;2023-03-23T00:00:36;11.90;99.90
37289;DHT22;23174;49.462;11.000;2023-03-23T00:02:36;11.90;99.90
37289;DHT22;23174;49.462;11.000;2023-03-23T00:04:38;12.10;99.90
37289;DHT22;23174;49.462;11.000;2023-03-23T00:06:38;12.40;99.90
37289;DHT22;23174;49.462;11.000;2023-03-23T00:08:39;12.80;99.90
37289;DHT22;23174;49.462;11.000;2023-03-23T00:10:48;13.00;99.90
37289;DHT22;23174;49.462;11.000;2023-03-23T00:12:49;13.20;99.90
37289;DHT22;23174;49.462;11.000;2023-03-23T00:14:50;13.20;99.90
37289;DHT22;23174;49.462;11.000;2023-03-23T00:16:54;13.20;99.90
37289;DHT22;23174;49.462;11.000;2023-03-23T00:18:56;13.30;99.90
37289;DHT22;23174;49.462;11.000;2023-03-23T00:20:57;13.20;99.90
37289;DHT22;23174;49.462;11.000;2023-03-23T00:22:58;13.20;99.90
37289;DHT22;23174;49.462;11.000;2023-03-23T00:25:00;13.30;99.90
37289;DHT22;23174;49.462;11.000;2023-03-23T00:27:02;13.30;99.90
37289;DHT22;23174;49.462;11.000;2023-03-23T00:29:03;13.20;99.90
37289;DHT22;23174;49.462;11.000;2023-03-23T00:31:06;13.10;99.90
37289;DHT22;23174;49.462;11.000;2023-03-23T00:33:08;13.30;99.90
37289;DHT22;23174;49.462;11.000;2023-03-23T00:35:08;13.20;99.90
37289;DHT22;23174;49.462;11.000;2023-03-23T00:37:09;13.20;99.90
37289;DHT22;23174;49.462;11.000;2023-03-23T00:39:10;13.30;99.90
37289;DHT22;23174;49.462;11.000;2023-03-23T00:41:12;13.40;99.90
37289;DHT22;23174;49.462;11.000;2023-03-23T00:43:17;13.50;99.90
37289;DHT22;23174;49.462;11.000;2023-03-23T00:45:18;13.40;99.90
37289;DHT22;23174;49.462;11.000;2023-03-23T00:47:18;13.40;99.90
37289;DHT22;23174;49.462;11.000;2023-03-23T00:49:20;13.50;99.90
37289;DHT22;23174;49.462;11.000;2023-03-23T00:51:30;13.40;99.90
37289;DHT22;23174;49.462;11.000;2023-03-23T00:53:31;13.40;99.90
37289;DHT22;23174;49.462;11.000;2023-03-23T00:55:32;13.40;99.90
37289;DHT22;23174;49.462;11.000;2023-03-23T00:57:34;13.40;99.90
37289;DHT22;23174;49.462;11.000;2023-03-23T00:59:34;13.50;99.90
37289;DHT22;23174;49.462;11.000;2023-03-23T01:01:35;13.60;99.90
37289;DHT22;23174;49.462;11.000;2023-03-23T01:03:36;13.70;99.90
37289;DHT22;23174;49.462;11.000;2023-03-23T01:05:38;13.70;99.90
37289;DHT22;23174;49.462;11.000;2023-03-23T01:07:38;13.60;99.90
37289;DHT22;23174;49.462;11.000;2023-03-23T01:09:39;13.50;99.90
37289;DHT22;23174;49.462;11.000;2023-03-23T01:11:44;13.50;99.90
37289;DHT22;23174;49.462;11.000;2023-03-23T01:13:45;13.60;99.90
37289;DHT22;23174;49.462;11.000;2023-03-23T01:15:45;13.60;99.90
37289;DHT22;23174;49.462;11.000;2023-03-23T01:17:47;13.60;99.90
37289;DHT22;23174;49.462;11.000;2023-03-23T01:19:47;13.60;99.90
37289;DHT22;23174;49.462;11.000;2023-03-23T01:21:48;13.60;99.90
37289;DHT22;23174;49.462;11.000;2023-03-23T01:23:49;13.70;99.90
37289;DHT22;23174;49.462;11.000;2023-03-23T01:25:49;13.70;99.90
37289;DHT22;23174;49.462;11.000;2023-03-23T01:27:50;13.70;99.90
37289;DHT22;23174;49.462;11.000;2023-03-23T01:29:51;13.70;99.90
37289;DHT22;23174;49.462;11.000;2023-03-23T01:31:51;13.60;99.90
37289;DHT22;23174;49.462;11.000;2023-03-23T01:33:54;13.60;99.90
37289;DHT22;23174;49.462;11.000;2023-03-23T01:35:55;13.70;99.90
37289;DHT22;23174;49.462;11.000;2023-03-23T01:37:56;13.70;99.90
37289;DHT22;23174;49.462;11.000;2023-03-23T01:39:57;13.70;99.90
37289;DHT22;23174;49.462;11.000;2023-03-23T01:41:57;13.80;99.90
37289;DHT22;23174;49.462;11.000;2023-03-23T01:44:07;13.80;99.90
37289;DHT22;23174;49.462;11.000;2023-03-23T01:46:08;13.90;99.90
37289;DHT22;23174;49.462;11.000;2023-03-23T01:48:15;14.00;99.90
37289;DHT22;23174;49.462;11.000;2023-03-23T01:50:21;14.10;99.90
37289;DHT22;23174;49.462;11.000;2023-03-23T01:52:26;14.10;99.90
37289;DHT22;23174;49.462;11.000;2023-03-23T01:54:29;14.10;99.90
37289;DHT22;23174;49.462;11.000;2023-03-23T01:56:36;14.20;99.90
37289;DHT22;23174;49.462;11.000;2023-03-23T01:58:41;14.30;99.90
37289;DHT22;23174;49.462;11.000;2023-03-23T02:00:43;14.30;99.90
37289;DHT22;23174;49.462;11.000;2023-03-23T02:02:46;14.40;99.90
37289;DHT22;23174;49.462;11.000;2023-03-23T02:04:47;14.40;99.90
37289;DHT22;23174;49.462;11.000;2023-03-23T02:06:48;14.50;99.90
37289;DHT22;23174;49.462;11.000;2023-03-23T02:08:49;14.50;99.90
37289;DHT22;23174;49.462;11.000;2023-03-23T02:10:51;14.50;99.90
37289;DHT22;23174;49.462;11.000;2023-03-23T02:12:51;14.60;99.90
37289;DHT22;23174;49.462;11.000;2023-03-23T02:14:52;14.60;99.90
37289;DHT22;23174;49.462;11.000;2023-03-23T02:19:39;14.70;99.90
37289;DHT22;23174;49.462;11.000;2023-03-23T02:27:01;14.80;99.90
37289;DHT22;23174;49.462;11.000;2023-03-23T02:33:54;14.90;99.90
37289;DHT22;23174;49.462;11.000;2023-03-23T02:36:02;14.90;99.90
37289;DHT22;23174;49.462;11.000;2023-03-23T02:38:16;14.90;99.90
37289;DHT22;23174;49.462;11.000;2023-03-23T02:40:25;14.90;99.90
37289;DHT22;23174;49.462;11.000;2023-03-23T02:42:31;14.90;99.90
37289;DHT22;23174;49.462;11.000;2023-03-23T02:44:36;14.90;99.90
37289;DHT22;23174;49.462;11.000;2023-03-23T02:46:37;14.90;99.90
37289;DHT22;23174;49.462;11.000;2023-03-23T02:48:41;15.00;99.90
37289;DHT22;23174;49.462;11.000;2023-03-23T02:50:46;15.00;99.90
37289;DHT22;23174;49.462;11.000;2023-03-23T02:52:48;15.00;99.90
37289;DHT22;23174;49.462;11.000;2023-03-23T02:54:51;15.00;99.90
37289;DHT22;23174;49.462;11.000;2023-03-23T02:56:54;15.00;99.90
37289;DHT22;23174;49.462;11.000;2023-03-23T02:58:55;15.00;99.90
37289;DHT22;23174;49.462;11.000;2023-03-23T03:00:56;15.00;99.90
37289;DHT22;23174;49.462;11.000;2023-03-23T03:02:59;15.00;99.90
37289;DHT22;23174;49.462;11.000;2023-03-23T03:07:54;15.00;99.90
37289;DHT22;23174;49.462;11.000;2023-03-23T03:15:02;15.00;99.90
37289;DHT22;23174;49.462;11.000;2023-03-23T03:17:28;15.00;99.90
37289;DHT22;23174;49.462;11.000;2023-03-23T03:19:38;15.00;99.90
37289;DHT22;23174;49.462;11.000;2023-03-23T03:21:42;14.90;99.90
37289;DHT22;23174;49.462;11.000;2023-03-23T03:23:45;14.80;99.90
37289;DHT22;23174;49.462;11.000;2023-03-23T03:25:46;14.80;99.90
37289;DHT22;23174;49.462;11.000;2023-03-23T03:27:48;14.70;99.90
37289;DHT22;23174;49.462;11.000;2023-03-23T03:29:56;14.60;99.90
37289;DHT22;23174;49.462;11.000;2023-03-23T03:32:01;14.50;99.90
37289;DHT22;23174;49.462;11.000;2023-03-23T03:34:02;14.50;99.90
37289;DHT22;23174;49.462;11.000;2023-03-23T03:36:04;14.50;99.90
37289;DHT22;23174;49.462;11.000;2023-03-23T03:38:10;14.40;99.90
37289;DHT22;23174;49.462;11.000;2023-03-23T03:40:14;14.40;99.90
37289;DHT22;23174;49.462;11.000;2023-03-23T03:42:16;14.40;99.90
37289;DHT22;23174;49.462;11.000;2023-03-23T03:44:17;14.40;99.90
37289;DHT22;23174;49.462;11.000;2023-03-23T03:46:17;14.40;99.90
37289;DHT22;23174;49.462;11.000;2023-03-23T03:48:18;14.40;99.90
37289;DHT22;23174;49.462;11.000;2023-03-23T03:50:18;14.30;99.90
37289;DHT22;23174;49.462;11.000;2023-03-23T03:52:19;14.20;99.90
37289;DHT22;23174;49.462;11.000;2023-03-23T03:54:19;14.20;99.90
37289;DHT22;23174;49.462;11.000;2023-03-23T03:56:20;14.20;99.90
37289;DHT22;23174;49.462;11.000;2023-03-23T03:58:27;14.20;99.90
37289;DHT22;23174;49.462;11.000;2023-03-23T04:00:31;14.10;99.90
37289;DHT22;23174;49.462;11.000;2023-03-23T04:02:32;14.10;99.90
37289;DHT22;23174;49.462;11.000;2023-03-23T04:04:32;14.10;99.90
37289;DHT22;23174;49.462;11.000;2023-03-23T04:06:33;14.20;99.90
37289;DHT22;23174;49.462;11.000;2023-03-23T04:08:36;14.20;99.90
37289;DHT22;23174;49.462;11.000;2023-03-23T04:10:38;14.30;99.90
37289;DHT22;23174;49.462;11.000;2023-03-23T04:12:39;14.30;99.90
37289;DHT22;23174;49.462;11.000;2023-03-23T04:14:40;14.40;99.90
37289;DHT22;23174;49.462;11.000;2023-03-23T04:16:41;14.40;99.90
37289;DHT22;23174;49.462;11.000;2023-03-23T04:18:43;14.40;99.90
37289;DHT22;23174;49.462;11.000;2023-03-23T04:20:45;14.30;99.90
37289;DHT22;23174;49.462;11.000;2023-03-23T04:22:48;14.30;99.90
37289;DHT22;23174;49.462;11.000;2023-03-23T04:24:52;14.40;99.90
37289;DHT22;23174;49.462;11.000;2023-03-23T04:26:52;14.40;99.90
37289;DHT22;23174;49.462;11.000;2023-03-23T04:28:55;14.40;99.90
37289;DHT22;23174;49.462;11.000;2023-03-23T04:30:56;14.30;99.90
37289;DHT22;23174;49.462;11.000;2023-03-23T04:32:56;14.40;99.90
37289;DHT22;23174;49.462;11.000;2023-03-23T04:34:58;14.40;99.90
37289;DHT22;23174;49.462;11.000;2023-03-23T04:37:02;14.40;99.90
37289;DHT22;23174;49.462;11.000;2023-03-23T04:39:02;14.50;99.90
37289;DHT22;23174;49.462;11.000;2023-03-23T04:41:07;14.50;99.90
37289;DHT22;23174;49.462;11.000;2023-03-23T04:43:07;14.50;99.90
37289;DHT22;23174;49.462;11.000;2023-03-23T04:45:08;14.50;99.90
37289;DHT22;23174;49.462;11.000;2023-03-23T04:47:09;14.50;99.90
37289;DHT22;23174;49.462;11.000;2023-03-23T04:49:10;14.50;99.90
37289;DHT22;23174;49.462;11.000;2023-03-23T04:51:11;14.40;99.90
37289;DHT22;23174;49.462;11.000;2023-03-23T04:53:14;14.50;99.90
37289;DHT22;23174;49.462;11.000;2023-03-23T04:55:18;14.40;99.90
37289;DHT22;23174;49.462;11.000;2023-03-23T04:57:20;14.30;99.90
37289;DHT22;23174;49.462;11.000;2023-03-23T04:59:20;14.40;99.90
37289;DHT22;23174;49.462;11.000;2023-03-23T05:01:21;14.40;99.90
37289;DHT22;23174;49.462;11.000;2023-03-23T05:03:22;14.40;99.90
37289;DHT22;23174;49.462;11.000;2023-03-23T05:05:23;14.30;99.90
37289;DHT22;23174;49.462;11.000;2023-03-23T05:07:24;14.40;99.90
37289;DHT22;23174;49.462;11.000;2023-03-23T05:09:25;14.30;99.90
37289;DHT22;23174;49.462;11.000;2023-03-23T05:11:26;14.40;99.90
37289;DHT22;23174;49.462;11.000;2023-03-23T05:13:27;14.40;99.90
37289;DHT22;23174;49.462;11.000;2023-03-23T05:15:28;14.40;99.90
37289;DHT22;23174;49.462;11.000;2023-03-23T05:17:29;14.30;99.90
37289;DHT22;23174;49.462;11.000;2023-03-23T05:19:30;14.30;99.90
37289;DHT22;23174;49.462;11.000;2023-03-23T05:21:31;14.30;99.90
37289;DHT22;23174;49.462;11.000;2023-03-23T05:23:32;14.30;99.90
37289;DHT22;23174;49.462;11.000;2023-03-23T05:25:35;14.40;99.90
37289;DHT22;23174;49.462;11.000;2023-03-23T05:27:40;14.50;99.90
37289;DHT22;23174;49.462;11.000;2023-03-23T05:29:43;14.50;99.90
37289;DHT22;23174;49.462;11.000;2023-03-23T05:31:46;14.50;99.90
37289;DHT22;23174;49.462;11.000;2023-03-23T05:33:48;14.50;99.90
37289;DHT22;23174;49.462;11.000;2023-03-23T05:35:48;14.60;99.90
37289;DHT22;23174;49.462;11.000;2023-03-23T05:37:49;14.60;99.90
37289;DHT22;23174;49.462;11.000;2023-03-23T05:39:49;14.60;99.90
37289;DHT22;23174;49.462;11.000;2023-03-23T05:41:54;14.70;99.90
37289;DHT22;23174;49.462;11.000;2023-03-23T05:43:55;14.70;99.90
37289;DHT22;23174;49.462;11.000;2023-03-23T05:45:55;14.70;99.90
37289;DHT22;23174;49.462;11.000;2023-03-23T05:47:56;14.70;99.90
37289;DHT22;23174;49.462;11.000;2023-03-23T05:49:57;14.80;99.90
37289;DHT22;23174;49.462;11.000;2023-03-23T05:51:59;14.70;99.90
37289;DHT22;23174;49.462;11.000;2023-03-23T05:53:59;14.80;99.90
37289;DHT22;23174;49.462;11.000;2023-03-23T05:56:01;14.80;99.90
37289;DHT22;23174;49.462;11.000;2023-03-23T05:58:02;14.90;99.90
37289;DHT22;23174;49.462;11.000;2023-03-23T06:00:04;14.80;99.90
37289;DHT22;23174;49.462;11.000;2023-03-23T06:02:20;14.80;99.90
37289;DHT22;23174;49.462;11.000;2023-03-23T06:04:21;14.70;99.90
37289;DHT22;23174;49.462;11.000;2023-03-23T06:06:29;14.80;99.90
37289;DHT22;23174;49.462;11.000;2023-03-23T06:08:30;14.80;99.90
37289;DHT22;23174;49.462;11.000;2023-03-23T06:10:31;14.90;99.90
37289;DHT22;23174;49.462;11.000;2023-03-23T06:12:33;15.00;99.90
37289;DHT22;23174;49.462;11.000;2023-03-23T06:14:34;14.90;99.90
37289;DHT22;23174;49.462;11.000;2023-03-23T06:16:35;14.90;99.90
37289;DHT22;23174;49.462;11.000;2023-03-23T06:18:36;15.00;99.90
37289;DHT22;23174;49.462;11.000;2023-03-23T06:20:37;14.90;99.90
37289;DHT22;23174;49.462;11.000;2023-03-23T06:22:39;15.00;99.90
37289;DHT22;23174;49.462;11.000;2023-03-23T06:24:39;15.00;99.90
37289;DHT22;23174;49.462;11.000;2023-03-23T06:26:40;15.00;99.90
37289;DHT22;23174;49.462;11.000;2023-03-23T06:28:44;15.00;99.90
37289;DHT22;23174;49.462;11.000;2023-03-23T06:30:45;15.00;99.90
37289;DHT22;23174;49.462;11.000;2023-03-23T06:32:46;15.10;99.90
37289;DHT22;23174;49.462;11.000;2023-03-23T06:34:47;15.10;99.90
37289;DHT22;23174;49.462;11.000;2023-03-23T06:40:13;15.20;99.90
37289;DHT22;23174;49.462;11.000;2023-03-23T06:42:14;15.30;99.90
37289;DHT22;23174;49.462;11.000;2023-03-23T06:44:14;15.30;99.90
37289;DHT22;23174;49.462;11.000;2023-03-23T06:46:15;15.30;99.90
37289;DHT22;23174;49.462;11.000;2023-03-23T06:48:16;15.40;99.90
37289;DHT22;23174;49.462;11.000;2023-03-23T06:50:17;15.30;99.90
37289;DHT22;23174;49.462;11.000;2023-03-23T06:52:17;15.40;99.90
37289;DHT22;23174;49.462;11.000;2023-03-23T06:54:18;15.40;99.90
37289;DHT22;23174;49.462;11.000;2023-03-23T06:56:18;15.50;99.90
37289;DHT22;23174;49.462;11.000;2023-03-23T06:58:19;15.40;99.90
37289;DHT22;23174;49.462;11.000;2023-03-23T07:00:20;15.50;99.90
37289;DHT22;23174;49.462;11.000;2023-03-23T07:02:20;15.50;99.90
37289;DHT22;23174;49.462;11.000;2023-03-23T07:04:21;15.60;99.90
37289;DHT22;23174;49.462;11.000;2023-03-23T07:06:24;15.70;99.90
37289;DHT22;23174;49.462;11.000;2023-03-23T07:08:25;15.70;99.90
37289;DHT22;23174;49.462;11.000;2023-03-23T07:10:26;15.70;99.90
37289;DHT22;23174;49.462;11.000;2023-03-23T07:12:27;15.80;99.90
37289;DHT22;23174;49.462;11.000;2023-03-23T07:14:29;15.80;99.90
37289;DHT22;23174;49.462;11.000;2023-03-23T07:16:29;15.80;99.90
37289;DHT22;23174;49.462;11.000;2023-03-23T07:18:32;15.80;99.90
37289;DHT22;23174;49.462;11.000;2023-03-23T07:20:32;15.80;99.90
37289;DHT22;23174;49.462;11.000;2023-03-23T07:22:33;15.80;99.90
37289;DHT22;23174;49.462;11.000;2023-03-23T07:24:34;15.80;99.90
37289;DHT22;23174;49.462;11.000;2023-03-23T07:26:35;15.80;99.90
37289;DHT22;23174;49.462;11.000;2023-03-23T07:28:36;15.80;99.90
37289;DHT22;23174;49.462;11.000;2023-03-23T07:30:38;15.80;99.90
37289;DHT22;23174;49.462;11.000;2023-03-23T07:32:38;15.80;99.90
37289;DHT22;23174;49.462;11.000;2023-03-23T07:34:39;15.90;99.90
37289;DHT22;23174;49.462;11.000;2023-03-23T07:36:41;15.90;99.90
37289;DHT22;23174;49.462;11.000;2023-03-23T07:38:42;15.90;99.90
37289;DHT22;23174;49.462;11.000;2023-03-23T07:40:45;15.90;99.90
37289;DHT22;23174;49.462;11.000;2023-03-23T07:42:52;15.80;99.90
37289;DHT22;23174;49.462;11.000;2023-03-23T07:44:52;15.80;99.90
37289;DHT22;23174;49.462;11.000;2023-03-23T07:46:53;15.90;99.90
37289;DHT22;23174;49.462;11.000;2023-03-23T07:48:54;15.90;99.90
37289;DHT22;23174;49.462;11.000;2023-03-23T07:50:54;15.90;99.90
37289;DHT22;23174;49.462;11.000;2023-03-23T07:52:57;15.90;99.90
37289;DHT22;23174;49.462;11.000;2023-03-23T07:54:57;15.90;99.90
37289;DHT22;23174;49.462;11.000;2023-03-23T07:56:58;16.00;99.90
37289;DHT22;23174;49.462;11.000;2023-03-23T07:58:59;15.90;99.90
37289;DHT22;23174;49.462;11.000;2023-03-23T08:00:59;15.90;99.90
37289;DHT22;23174;49.462;11.000;2023-03-23T08:03:05;15.90;99.90
37289;DHT22;23174;49.462;11.000;2023-03-23T08:05:06;15.90;99.90
37289;DHT22;23174;49.462;11.000;2023-03-23T08:07:08;15.90;99.90
37289;DHT22;23174;49.462;11.000;2023-03-23T08:09:12;16.00;99.90
37289;DHT22;23174;49.462;11.000;2023-03-23T08:11:13;15.90;99.90
37289;DHT22;23174;49.462;11.000;2023-03-23T08:13:15;15.90;99.90
37289;DHT22;23174;49.462;11.000;2023-03-23T08:15:16;15.90;99.90
37289;DHT22;23174;49.462;11.000;2023-03-23T08:17:16;15.90;99.90
37289;DHT22;23174;49.462;11.000;2023-03-23T08:19:17;15.90;99.90
37289;DHT22;23174;49.462;11.000;2023-03-23T08:21:18;15.90;99.90
37289;DHT22;23174;49.462;11.000;2023-03-23T08:23:20;15.90;99.90
37289;DHT22;23174;49.462;11.000;2023-03-23T08:25:22;15.80;99.90
37289;DHT22;23174;49.462;11.000;2023-03-23T08:27:24;15.80;99.90
37289;DHT22;23174;49.462;11.000;2023-03-23T08:29:25;15.80;99.90
37289;DHT22;23174;49.462;11.000;2023-03-23T08:31:26;15.90;99.90
37289;DHT22;23174;49.462;11.000;2023-03-23T08:33:27;15.90;99.90
37289;DHT22;23174;49.462;11.000;2023-03-23T08:35:28;15.80;99.90
37289;DHT22;23174;49.462;11.000;2023-03-23T08:37:29;15.80;99.90
37289;DHT22;23174;49.462;11.000;2023-03-23T08:39:30;15.80;99.90
37289;DHT22;23174;49.462;11.000;2023-03-23T08:41:32;15.80;99.90
37289;DHT22;23174;49.462;11.000;2023-03-23T08:43:32;15.80;99.90
37289;DHT22;23174;49.462;11.000;2023-03-23T08:45:33;15.70;99.90
37289;DHT22;23174;49.462;11.000;2023-03-23T08:47:34;15.70;99.90
37289;DHT22;23174;49.462;11.000;2023-03-23T08:49:35;15.70;99.90
37289;DHT22;23174;49.462;11.000;2023-03-23T08:51:36;15.70;99.90
37289;DHT22;23174;49.462;11.000;2023-03-23T08:53:37;15.70;99.90
37289;DHT22;23174;49.462;11.000;2023-03-23T08:55:38;15.70;99.90
37289;DHT22;23174;49.462;11.000;2023-03-23T08:57:40;15.70;99.90
37289;DHT22;23174;49.462;11.000;2023-03-23T08:59:43;15.80;99.90
37289;DHT22;23174;49.462;11.000;2023-03-23T09:01:43;15.80;99.90
37289;DHT22;23174;49.462;11.000;2023-03-23T09:03:45;15.90;99.90
37289;DHT22;23174;49.462;11.000;2023-03-23T09:05:46;15.80;99.90
37289;DHT22;23174;49.462;11.000;2023-03-23T09:07:48;15.90;99.90
37289;DHT22;23174;49.462;11.000;2023-03-23T09:09:49;15.90;99.90
37289;DHT22;23174;49.462;11.000;2023-03-23T09:11:50;16.00;99.90
37289;DHT22;23174;49.462;11.000;2023-03-23T09:13:51;15.90;99.90
37289;DHT22;23174;49.462;11.000;2023-03-23T09:15:51;16.00;99.90
37289;DHT22;23174;49.462;11.000;2023-03-23T09:17:52;16.00;99.90
37289;DHT22;23174;49.462;11.000;2023-03-23T09:19:54;16.10;99.90
37289;DHT22;23174;49.462;11.000;2023-03-23T09:21:55;16.00;99.90
37289;DHT22;23174;49.462;11.000;2023-03-23T09:23:56;16.10;99.90
37289;DHT22;23174;49.462;11.000;2023-03-23T09:26:02;16.10;99.90
37289;DHT22;23174;49.462;11.000;2023-03-23T09:28:03;16.20;99.90
37289;DHT22;23174;49.462;11.000;2023-03-23T09:30:11;16.20;99.90
37289;DHT22;23174;49.462;11.000;2023-03-23T09:32:12;16.20;99.90
37289;DHT22;23174;49.462;11.000;2023-03-23T09:34:14;16.30;99.90
37289;DHT22;23174;49.462;11.000;2023-03-23T09:36:15;16.30;99.90
37289;DHT22;23174;49.462;11.000;2023-03-23T09:38:17;16.30;99.90
37289;DHT22;23174;49.462;11.000;2023-03-23T09:44:56;16.30;99.90
37289;DHT22;23174;49.462;11.000;2023-03-23T09:47:12;16.40;99.90
37289;DHT22;23174;49.462;11.000;2023-03-23T09:49:19;16.40;99.90
37289;DHT22;23174;49.462;11.000;2023-03-23T09:51:47;16.50;99.90
37289;DHT22;23174;49.462;11.000;2023-03-23T09:53:53;16.50;99.90
37289;DHT22;23174;49.462;11.000;2023-03-23T09:55:55;16.50;99.90
37289;DHT22;23174;49.462;11.000;2023-03-23T10:00:16;16.50;99.90
37289;DHT22;23174;49.462;11.000;2023-03-23T10:02:32;16.60;99.90
37289;DHT22;23174;49.462;11.000;2023-03-23T10:04:51;16.60;99.90
37289;DHT22;23174;49.462;11.000;2023-03-23T10:09:18;16.60;99.90
37289;DHT22;23174;49.462;11.000;2023-03-23T10:11:39;16.70;99.90
37289;DHT22;23174;49.462;11.000;2023-03-23T10:16:02;16.60;99.90
37289;DHT22;23174;49.462;11.000;2023-03-23T10:18:20;16.60;99.90
37289;DHT22;23174;49.462;11.000;2023-03-23T10:20:32;16.60;99.90
37289;DHT22;23174;49.462;11.000;2023-03-23T10:22:38;16.60;99.90
37289;DHT22;23174;49.462;11.000;2023-03-23T10:24:51;16.60;99.90
37289;DHT22;23174;49.462;11.000;2023-03-23T10:29:24;16.50;99.90
37289;DHT22;23174;49.462;11.000;2023-03-23T10:31:34;16.50;99.90
37289;DHT22;23174;49.462;11.000;2023-03-23T10:35:45;16.50;99.90
37289;DHT22;23174;49.462;11.000;2023-03-23T10:37:59;16.50;99.90
37289;DHT22;23174;49.462;11.000;2023-03-23T10:40:02;16.50;99.90
37289;DHT22;23174;49.462;11.000;2023-03-23T10:42:04;16.50;99.90
37289;DHT22;23174;49.462;11.000;2023-03-23T10:44:18;16.50;99.90
37289;DHT22;23174;49.462;11.000;2023-03-23T10:48:30;16.60;99.90
37289;DHT22;23174;49.462;11.000;2023-03-23T10:50:35;16.60;99.90
37289;DHT22;23174;49.462;11.000;2023-03-23T10:52:41;16.60;99.90
37289;DHT22;23174;49.462;11.000;2023-03-23T10:55:16;16.50;99.90
37289;DHT22;23174;49.462;11.000;2023-03-23T10:57:23;16.60;99.90
37289;DHT22;23174;49.462;11.000;2023-03-23T10:59:30;16.50;99.90
37289;DHT22;23174;49.462;11.000;2023-03-23T11:01:33;16.50;99.90
37289;DHT22;23174;49.462;11.000;2023-03-23T11:03:42;16.50;99.90
37289;DHT22;23174;49.462;11.000;2023-03-23T11:05:47;16.50;99.90
37289;DHT22;23174;49.462;11.000;2023-03-23T11:07:56;16.50;99.90
37289;DHT22;23174;49.462;11.000;2023-03-23T11:10:06;16.50;99.90
37289;DHT22;23174;49.462;11.000;2023-03-23T11:12:17;16.50;99.90
37289;DHT22;23174;49.462;11.000;2023-03-23T11:14:32;16.50;99.90
37289;DHT22;23174;49.462;11.000;2023-03-23T11:16:34;16.40;99.90
37289;DHT22;23174;49.462;11.000;2023-03-23T11:18:42;16.40;99.90
37289;DHT22;23174;49.462;11.000;2023-03-23T11:20:44;16.40;99.90
37289;DHT22;23174;49.462;11.000;2023-03-23T11:22:47;16.40;99.90
37289;DHT22;23174;49.462;11.000;2023-03-23T11:24:53;16.30;99.90
37289;DHT22;23174;49.462;11.000;2023-03-23T11:26:56;16.30;99.90
37289;DHT22;23174;49.462;11.000;2023-03-23T11:29:10;16.40;99.90
37289;DHT22;23174;49.462;11.000;2023-03-23T11:31:12;16.30;99.90
37289;DHT22;23174;49.462;11.000;2023-03-23T11:33:14;16.30;99.90
37289;DHT22;23174;49.462;11.000;2023-03-23T11:35:25;16.40;99.90
37289;DHT22;23174;49.462;11.000;2023-03-23T11:37:34;16.30;99.90
37289;DHT22;23174;49.462;11.000;2023-03-23T11:41:58;16.30;99.90
37289;DHT22;23174;49.462;11.000;2023-03-23T11:44:03;16.30;99.90
37289;DHT22;23174;49.462;11.000;2023-03-23T11:50:34;16.30;99.90
37289;DHT22;23174;49.462;11.000;2023-03-23T11:54:54;16.40;99.90
37289;DHT22;23174;49.462;11.000;2023-03-23T11:56:56;16.40;99.90
37289;DHT22;23174;49.462;11.000;2023-03-23T11:58:58;16.30;99.90
37289;DHT22;23174;49.462;11.000;2023-03-23T12:07:00;16.30;99.90
37289;DHT22;23174;49.462;11.000;2023-03-23T12:09:09;16.40;99.90
37289;DHT22;23174;49.462;11.000;2023-03-23T12:14:04;16.40;99.90
37289;DHT22;23174;49.462;11.000;2023-03-23T12:16:26;16.40;99.90
37289;DHT22;23174;49.462;11.000;2023-03-23T12:22:46;16.60;99.90
37289;DHT22;23174;49.462;11.000;2023-03-23T12:29:51;16.70;99.90
37289;DHT22;23174;49.462;11.000;2023-03-23T12:34:19;16.70;99.90
37289;DHT22;23174;49.462;11.000;2023-03-23T12:48:03;16.80;99.90
37289;DHT22;23174;49.462;11.000;2023-03-23T12:50:15;16.80;99.90
37289;DHT22;23174;49.462;11.000;2023-03-23T12:52:54;16.80;99.90
37289;DHT22;23174;49.462;11.000;2023-03-23T12:55:05;16.90;99.90
37289;DHT22;23174;49.462;11.000;2023-03-23T13:01:22;16.90;99.90
37289;DHT22;23174;49.462;11.000;2023-03-23T13:05:52;17.00;99.90
37289;DHT22;23174;49.462;11.000;2023-03-23T13:08:11;17.00;99.90
37289;DHT22;23174;49.462;11.000;2023-03-23T13:10:27;17.00;99.90
37289;DHT22;23174;49.462;11.000;2023-03-23T13:12:28;17.00;99.90
37289;DHT22;23174;49.462;11.000;2023-03-23T13:19:31;17.10;99.90
37289;DHT22;23174;49.462;11.000;2023-03-23T13:21:41;17.10;99.90
37289;DHT22;23174;49.462;11.000;2023-03-23T13:23:48;17.10;99.90
37289;DHT22;23174;49.462;11.000;2023-03-23T13:26:03;17.10;99.90
37289;DHT22;23174;49.462;11.000;2023-03-23T13:28:24;17.10;99.90
37289;DHT22;23174;49.462;11.000;2023-03-23T13:30:27;17.10;99.90
37289;DHT22;23174;49.462;11.000;2023-03-23T13:32:37;17.20;99.90
37289;DHT22;23174;49.462;11.000;2023-03-23T13:34:40;17.10;99.90
37289;DHT22;23174;49.462;11.000;2023-03-23T13:36:43;17.10;99.90
37289;DHT22;23174;49.462;11.000;2023-03-23T13:38:47;17.10;99.90
37289;DHT22;23174;49.462;11.000;2023-03-23T13:40:49;17.10;99.90
37289;DHT22;23174;49.462;11.000;2023-03-23T13:42:53;17.10;99.90
37289;DHT22;23174;49.462;11.000;2023-03-23T13:45:04;17.10;99.90
37289;DHT22;23174;49.462;11.000;2023-03-23T13:47:16;17.10;99.90
37289;DHT22;23174;49.462;11.000;2023-03-23T13:49:20;17.00;99.90
37289;DHT22;23174;49.462;11.000;2023-03-23T13:53:45;17.00;99.90
37289;DHT22;23174;49.462;11.000;2023-03-23T13:55:51;17.10;99.90
37289;DHT22;23174;49.462;11.000;2023-03-23T14:00:12;17.00;99.90
37289;DHT22;23174;49.462;11.000;2023-03-23T14:02:41;17.10;99.90
37289;DHT22;23174;49.462;11.000;2023-03-23T14:04:51;17.10;99.90
37289;DHT22;23174;49.462;11.000;2023-03-23T14:06:51;17.10;99.90
37289;DHT22;23174;49.462;11.000;2023-03-23T14:08:54;17.10;99.90
37289;DHT22;23174;49.462;11.000;2023-03-23T14:13:05;17.20;99.90
37289;DHT22;23174;49.462;11.000;2023-03-23T14:15:13;17.20;99.90
37289;DHT22;23174;49.462;11.000;2023-03-23T14:17:21;17.20;99.90
37289;DHT22;23174;49.462;11.000;2023-03-23T14:19:27;17.20;99.90
37289;DHT22;23174;49.462;11.000;2023-03-23T14:21:36;17.20;99.90
37289;DHT22;23174;49.462;11.000;2023-03-23T14:23:39;17.20;99.90
37289;DHT22;23174;49.462;11.000;2023-03-23T14:25:40;17.20;99.90
37289;DHT22;23174;49.462;11.000;2023-03-23T14:27:42;17.10;99.90
37289;DHT22;23174;49.462;11.000;2023-03-23T14:29:43;17.10;99.90